sensor_id;sensor_type;location;lat;lon;timestamp;P1;durP1;ratioP1;P2;durP2;ratioP2
33786;SDS011;29742;51.540;9.358;2023-03-03T00:00:52;2.20;;;1.80;;
33786;SDS011;29742;51.540;9.358;2023-03-03T00:05:53;2.38;;;1.63;;
33786;SDS011;29742;51.540;9.358;2023-03-03T00:10:54;2.65;;;2.00;;
33786;SDS011;29742;51.540;9.358;2023-03-03T00:15:54;2.72;;;1.95;;
33786;SDS011;29742;51.540;9.358;2023-03-03T00:21:30;2.42;;;1.77;;
33786;SDS011;29742;51.540;9.358;2023-03-03T00:26:35;2.15;;;1.88;;
33786;SDS011;29742;51.540;9.358;2023-03-03T00:31:37;2.67;;;1.80;;
33786;SDS011;29742;51.540;9.358;2023-03-03T00:36:38;3.30;;;2.28;;
33786;SDS011;29742;51.540;9.358;2023-03-03T00:41:40;2.22;;;1.48;;
33786;SDS011;29742;51.540;9.358;2023-03-03T00:46:40;2.25;;;1.58;;
33786;SDS011;29742;51.540;9.358;2023-03-03T00:51:41;2.05;;;1.55;;
33786;SDS011;29742;51.540;9.358;2023-03-03T00:56:43;1.95;;;1.60;;
33786;SDS011;29742;51.540;9.358;2023-03-03T01:01:43;2.13;;;1.40;;
33786;SDS011;29742;51.540;9.358;2023-03-03T01:06:44;2.20;;;1.48;;
33786;SDS011;29742;51.540;9.358;2023-03-03T01:11:44;2.70;;;1.48;;
33786;SDS011;29742;51.540;9.358;2023-03-03T01:16:44;2.05;;;1.45;;
33786;SDS011;29742;51.540;9.358;2023-03-03T01:21:45;2.08;;;1.65;;
33786;SDS011;29742;51.540;9.358;2023-03-03T01:26:45;2.08;;;1.40;;
33786;SDS011;29742;51.540;9.358;2023-03-03T01:31:46;1.98;;;1.35;;
33786;SDS011;29742;51.540;9.358;2023-03-03T01:36:46;1.77;;;1.38;;
33786;SDS011;29742;51.540;9.358;2023-03-03T01:41:47;1.83;;;1.45;;
33786;SDS011;29742;51.540;9.358;2023-03-03T01:51:56;1.48;;;1.20;;
33786;SDS011;29742;51.540;9.358;2023-03-03T01:56:58;1.55;;;1.17;;
33786;SDS011;29742;51.540;9.358;2023-03-03T02:02:00;1.80;;;1.25;;
33786;SDS011;29742;51.540;9.358;2023-03-03T02:07:01;0.90;;;0.88;;
33786;SDS011;29742;51.540;9.358;2023-03-03T02:12:07;1.40;;;1.02;;
33786;SDS011;29742;51.540;9.358;2023-03-03T02:17:08;1.70;;;1.23;;
33786;SDS011;29742;51.540;9.358;2023-03-03T02:22:09;1.42;;;1.15;;
33786;SDS011;29742;51.540;9.358;2023-03-03T02:27:10;1.23;;;1.08;;
33786;SDS011;29742;51.540;9.358;2023-03-03T02:32:10;1.40;;;1.15;;
33786;SDS011;29742;51.540;9.358;2023-03-03T02:37:11;2.13;;;1.20;;
33786;SDS011;29742;51.540;9.358;2023-03-03T02:42:13;1.23;;;1.05;;
33786;SDS011;29742;51.540;9.358;2023-03-03T02:47:15;1.42;;;1.00;;
33786;SDS011;29742;51.540;9.358;2023-03-03T02:52:16;1.30;;;0.88;;
33786;SDS011;29742;51.540;9.358;2023-03-03T02:57:17;1.20;;;0.80;;
33786;SDS011;29742;51.540;9.358;2023-03-03T03:02:18;1.27;;;1.05;;
33786;SDS011;29742;51.540;9.358;2023-03-03T03:07:18;1.30;;;1.10;;
33786;SDS011;29742;51.540;9.358;2023-03-03T03:12:19;1.17;;;1.08;;
33786;SDS011;29742;51.540;9.358;2023-03-03T03:17:20;1.17;;;0.70;;
33786;SDS011;29742;51.540;9.358;2023-03-03T03:22:20;0.85;;;0.60;;
33786;SDS011;29742;51.540;9.358;2023-03-03T03:27:20;1.25;;;1.00;;
33786;SDS011;29742;51.540;9.358;2023-03-03T03:32:22;0.98;;;0.77;;
33786;SDS011;29742;51.540;9.358;2023-03-03T03:37:22;0.70;;;0.70;;
33786;SDS011;29742;51.540;9.358;2023-03-03T03:42:23;1.02;;;0.70;;
33786;SDS011;29742;51.540;9.358;2023-03-03T03:47:23;1.20;;;0.93;;
33786;SDS011;29742;51.540;9.358;2023-03-03T03:52:23;0.77;;;0.75;;
33786;SDS011;29742;51.540;9.358;2023-03-03T03:57:24;1.02;;;0.82;;
33786;SDS011;29742;51.540;9.358;2023-03-03T04:02:24;0.90;;;0.90;;
33786;SDS011;29742;51.540;9.358;2023-03-03T04:07:25;1.00;;;0.80;;
33786;SDS011;29742;51.540;9.358;2023-03-03T04:12:25;0.60;;;0.60;;
33786;SDS011;29742;51.540;9.358;2023-03-03T04:17:25;0.77;;;0.63;;
33786;SDS011;29742;51.540;9.358;2023-03-03T04:22:26;2.90;;;1.52;;
33786;SDS011;29742;51.540;9.358;2023-03-03T04:27:26;1.70;;;0.95;;
33786;SDS011;29742;51.540;9.358;2023-03-03T04:32:26;1.83;;;1.20;;
33786;SDS011;29742;51.540;9.358;2023-03-03T04:37:27;1.33;;;1.15;;
33786;SDS011;29742;51.540;9.358;2023-03-03T04:42:27;1.77;;;1.20;;
33786;SDS011;29742;51.540;9.358;2023-03-03T04:47:29;2.35;;;1.42;;
33786;SDS011;29742;51.540;9.358;2023-03-03T04:52:29;1.90;;;1.15;;
33786;SDS011;29742;51.540;9.358;2023-03-03T04:57:30;1.45;;;1.00;;
33786;SDS011;29742;51.540;9.358;2023-03-03T05:02:31;1.85;;;1.23;;
33786;SDS011;29742;51.540;9.358;2023-03-03T05:07:31;1.60;;;0.98;;
33786;SDS011;29742;51.540;9.358;2023-03-03T05:12:31;1.83;;;1.02;;
33786;SDS011;29742;51.540;9.358;2023-03-03T05:17:32;2.78;;;1.30;;
33786;SDS011;29742;51.540;9.358;2023-03-03T05:22:32;1.70;;;1.13;;
33786;SDS011;29742;51.540;9.358;2023-03-03T05:27:33;2.13;;;1.25;;
33786;SDS011;29742;51.540;9.358;2023-03-03T05:32:33;1.83;;;1.05;;
33786;SDS011;29742;51.540;9.358;2023-03-03T05:37:34;2.95;;;1.92;;
33786;SDS011;29742;51.540;9.358;2023-03-03T05:42:34;1.38;;;0.80;;
33786;SDS011;29742;51.540;9.358;2023-03-03T05:47:34;1.55;;;1.13;;
33786;SDS011;29742;51.540;9.358;2023-03-03T05:52:35;1.25;;;1.00;;
33786;SDS011;29742;51.540;9.358;2023-03-03T05:57:35;0.88;;;0.52;;
33786;SDS011;29742;51.540;9.358;2023-03-03T06:02:35;1.00;;;0.82;;
33786;SDS011;29742;51.540;9.358;2023-03-03T06:07:36;2.28;;;1.17;;
33786;SDS011;29742;51.540;9.358;2023-03-03T06:12:36;2.53;;;1.45;;
33786;SDS011;29742;51.540;9.358;2023-03-03T06:17:38;1.20;;;0.95;;
33786;SDS011;29742;51.540;9.358;2023-03-03T06:22:38;2.80;;;1.23;;
33786;SDS011;29742;51.540;9.358;2023-03-03T06:27:38;1.73;;;1.13;;
33786;SDS011;29742;51.540;9.358;2023-03-03T06:32:39;1.75;;;1.10;;
33786;SDS011;29742;51.540;9.358;2023-03-03T06:37:39;1.10;;;0.98;;
33786;SDS011;29742;51.540;9.358;2023-03-03T06:42:40;1.80;;;1.20;;
33786;SDS011;29742;51.540;9.358;2023-03-03T06:47:40;1.42;;;0.90;;
33786;SDS011;29742;51.540;9.358;2023-03-03T06:52:41;1.92;;;1.30;;
33786;SDS011;29742;51.540;9.358;2023-03-03T06:57:41;0.82;;;0.75;;
33786;SDS011;29742;51.540;9.358;2023-03-03T07:02:42;1.00;;;0.90;;
33786;SDS011;29742;51.540;9.358;2023-03-03T07:07:42;1.40;;;1.20;;
33786;SDS011;29742;51.540;9.358;2023-03-03T07:12:43;1.08;;;0.98;;
33786;SDS011;29742;51.540;9.358;2023-03-03T07:17:44;1.83;;;1.05;;
33786;SDS011;29742;51.540;9.358;2023-03-03T07:22:47;1.75;;;1.10;;
33786;SDS011;29742;51.540;9.358;2023-03-03T07:27:48;1.30;;;0.80;;
33786;SDS011;29742;51.540;9.358;2023-03-03T07:32:48;1.38;;;0.90;;
33786;SDS011;29742;51.540;9.358;2023-03-03T07:37:52;1.10;;;0.90;;
33786;SDS011;29742;51.540;9.358;2023-03-03T07:42:53;1.08;;;0.98;;
33786;SDS011;29742;51.540;9.358;2023-03-03T07:48:00;1.85;;;1.10;;
33786;SDS011;29742;51.540;9.358;2023-03-03T08:03:18;1.17;;;0.77;;
33786;SDS011;29742;51.540;9.358;2023-03-03T08:08:34;1.35;;;0.93;;
33786;SDS011;29742;51.540;9.358;2023-03-03T08:13:36;2.05;;;1.35;;
33786;SDS011;29742;51.540;9.358;2023-03-03T08:18:48;1.40;;;1.17;;
33786;SDS011;29742;51.540;9.358;2023-03-03T08:23:49;2.28;;;1.10;;
33786;SDS011;29742;51.540;9.358;2023-03-03T08:28:52;1.48;;;1.15;;
33786;SDS011;29742;51.540;9.358;2023-03-03T08:33:53;1.42;;;0.90;;
33786;SDS011;29742;51.540;9.358;2023-03-03T08:38:53;0.98;;;0.85;;
33786;SDS011;29742;51.540;9.358;2023-03-03T08:43:54;0.73;;;0.63;;
33786;SDS011;29742;51.540;9.358;2023-03-03T08:48:54;0.90;;;0.80;;
33786;SDS011;29742;51.540;9.358;2023-03-03T08:53:55;1.75;;;1.05;;
33786;SDS011;29742;51.540;9.358;2023-03-03T08:58:55;1.50;;;1.30;;
33786;SDS011;29742;51.540;9.358;2023-03-03T09:03:55;0.70;;;0.60;;
33786;SDS011;29742;51.540;9.358;2023-03-03T09:08:56;1.30;;;0.60;;
33786;SDS011;29742;51.540;9.358;2023-03-03T09:14:09;0.98;;;0.77;;
33786;SDS011;29742;51.540;9.358;2023-03-03T09:19:30;0.77;;;0.60;;
33786;SDS011;29742;51.540;9.358;2023-03-03T09:24:34;1.13;;;0.65;;
33786;SDS011;29742;51.540;9.358;2023-03-03T09:29:38;0.65;;;0.65;;
33786;SDS011;29742;51.540;9.358;2023-03-03T09:34:40;0.80;;;0.65;;
33786;SDS011;29742;51.540;9.358;2023-03-03T09:39:41;0.60;;;0.50;;
33786;SDS011;29742;51.540;9.358;2023-03-03T10:05:58;0.90;;;0.57;;
33786;SDS011;29742;51.540;9.358;2023-03-03T10:37:37;0.93;;;0.50;;
33786;SDS011;29742;51.540;9.358;2023-03-03T10:53:43;0.98;;;0.52;;
33786;SDS011;29742;51.540;9.358;2023-03-03T10:59:14;0.40;;;0.20;;
33786;SDS011;29742;51.540;9.358;2023-03-03T11:35:48;0.80;;;0.47;;
33786;SDS011;29742;51.540;9.358;2023-03-03T11:40:54;0.30;;;0.20;;
33786;SDS011;29742;51.540;9.358;2023-03-03T11:46:02;0.20;;;0.20;;
33786;SDS011;29742;51.540;9.358;2023-03-03T11:51:07;0.22;;;0.20;;
33786;SDS011;29742;51.540;9.358;2023-03-03T11:56:20;0.32;;;0.30;;
33786;SDS011;29742;51.540;9.358;2023-03-03T12:01:43;0.32;;;0.30;;
33786;SDS011;29742;51.540;9.358;2023-03-03T12:16:16;0.30;;;0.20;;
33786;SDS011;29742;51.540;9.358;2023-03-03T12:27:34;0.30;;;0.30;;
33786;SDS011;29742;51.540;9.358;2023-03-03T12:32:12;0.30;;;0.30;;
33786;SDS011;29742;51.540;9.358;2023-03-03T12:37:33;0.10;;;0.10;;
33786;SDS011;29742;51.540;9.358;2023-03-03T12:48:15;0.28;;;0.20;;
33786;SDS011;29742;51.540;9.358;2023-03-03T13:15:11;0.85;;;0.68;;
33786;SDS011;29742;51.540;9.358;2023-03-03T13:20:24;0.63;;;0.50;;
33786;SDS011;29742;51.540;9.358;2023-03-03T13:30:47;0.73;;;0.43;;
33786;SDS011;29742;51.540;9.358;2023-03-03T13:36:04;0.57;;;0.47;;
33786;SDS011;29742;51.540;9.358;2023-03-03T13:46:27;0.57;;;0.47;;
33786;SDS011;29742;51.540;9.358;2023-03-03T13:52:34;0.40;;;0.40;;
33786;SDS011;29742;51.540;9.358;2023-03-03T13:57:36;0.28;;;0.28;;
33786;SDS011;29742;51.540;9.358;2023-03-03T14:02:56;0.55;;;0.40;;
33786;SDS011;29742;51.540;9.358;2023-03-03T14:08:41;0.55;;;0.50;;
33786;SDS011;29742;51.540;9.358;2023-03-03T14:13:55;0.60;;;0.50;;
33786;SDS011;29742;51.540;9.358;2023-03-03T14:19:23;0.30;;;0.20;;
33786;SDS011;29742;51.540;9.358;2023-03-03T14:24:25;0.40;;;0.35;;
33786;SDS011;29742;51.540;9.358;2023-03-03T14:34:29;0.45;;;0.40;;
33786;SDS011;29742;51.540;9.358;2023-03-03T14:39:40;0.40;;;0.40;;
33786;SDS011;29742;51.540;9.358;2023-03-03T14:49:44;0.80;;;0.43;;
33786;SDS011;29742;51.540;9.358;2023-03-03T14:54:45;0.43;;;0.32;;
33786;SDS011;29742;51.540;9.358;2023-03-03T14:59:58;0.60;;;0.40;;
33786;SDS011;29742;51.540;9.358;2023-03-03T15:05:16;0.40;;;0.40;;
33786;SDS011;29742;51.540;9.358;2023-03-03T15:10:28;0.40;;;0.40;;
33786;SDS011;29742;51.540;9.358;2023-03-03T15:15:36;0.38;;;0.22;;
33786;SDS011;29742;51.540;9.358;2023-03-03T15:21:04;0.75;;;0.40;;
33786;SDS011;29742;51.540;9.358;2023-03-03T15:26:17;0.60;;;0.50;;
33786;SDS011;29742;51.540;9.358;2023-03-03T15:41:39;0.50;;;0.50;;
33786;SDS011;29742;51.540;9.358;2023-03-03T15:47:00;1.20;;;0.52;;
33786;SDS011;29742;51.540;9.358;2023-03-03T15:57:31;1.13;;;0.57;;
33786;SDS011;29742;51.540;9.358;2023-03-03T16:02:50;0.35;;;0.30;;
33786;SDS011;29742;51.540;9.358;2023-03-03T16:24:18;0.40;;;0.40;;
33786;SDS011;29742;51.540;9.358;2023-03-03T16:29:33;0.63;;;0.50;;
33786;SDS011;29742;51.540;9.358;2023-03-03T16:34:44;0.73;;;0.60;;
33786;SDS011;29742;51.540;9.358;2023-03-03T16:50:35;0.80;;;0.50;;
33786;SDS011;29742;51.540;9.358;2023-03-03T16:55:41;0.88;;;0.40;;
33786;SDS011;29742;51.540;9.358;2023-03-03T17:06:28;0.88;;;0.55;;
33786;SDS011;29742;51.540;9.358;2023-03-03T17:32:51;0.52;;;0.38;;
33786;SDS011;29742;51.540;9.358;2023-03-03T17:53:41;0.30;;;0.30;;
33786;SDS011;29742;51.540;9.358;2023-03-03T18:09:37;1.08;;;0.68;;
33786;SDS011;29742;51.540;9.358;2023-03-03T18:30:27;0.65;;;0.30;;
33786;SDS011;29742;51.540;9.358;2023-03-03T18:35:48;0.68;;;0.57;;
33786;SDS011;29742;51.540;9.358;2023-03-03T18:46:00;0.60;;;0.47;;
33786;SDS011;29742;51.540;9.358;2023-03-03T18:51:00;0.50;;;0.50;;
33786;SDS011;29742;51.540;9.358;2023-03-03T18:56:02;0.43;;;0.32;;
33786;SDS011;29742;51.540;9.358;2023-03-03T19:11:48;1.00;;;0.65;;
33786;SDS011;29742;51.540;9.358;2023-03-03T19:16:52;1.48;;;0.73;;
33786;SDS011;29742;51.540;9.358;2023-03-03T19:22:18;0.70;;;0.63;;
33786;SDS011;29742;51.540;9.358;2023-03-03T19:27:28;1.10;;;0.77;;
33786;SDS011;29742;51.540;9.358;2023-03-03T19:33:17;0.95;;;0.63;;
33786;SDS011;29742;51.540;9.358;2023-03-03T19:38:54;1.58;;;0.95;;
33786;SDS011;29742;51.540;9.358;2023-03-03T19:54:46;1.52;;;1.00;;
33786;SDS011;29742;51.540;9.358;2023-03-03T19:59:59;1.35;;;1.00;;
33786;SDS011;29742;51.540;9.358;2023-03-03T20:05:28;1.45;;;0.73;;
33786;SDS011;29742;51.540;9.358;2023-03-03T20:26:19;1.60;;;0.95;;
33786;SDS011;29742;51.540;9.358;2023-03-03T20:47:32;2.17;;;1.00;;
33786;SDS011;29742;51.540;9.358;2023-03-03T21:08:49;2.28;;;1.30;;
33786;SDS011;29742;51.540;9.358;2023-03-03T21:13:54;2.67;;;1.25;;
33786;SDS011;29742;51.540;9.358;2023-03-03T21:19:04;1.35;;;1.08;;
33786;SDS011;29742;51.540;9.358;2023-03-03T21:24:05;1.63;;;1.15;;
33786;SDS011;29742;51.540;9.358;2023-03-03T21:29:07;2.05;;;0.98;;
33786;SDS011;29742;51.540;9.358;2023-03-03T21:34:16;2.08;;;1.20;;
33786;SDS011;29742;51.540;9.358;2023-03-03T21:39:40;1.58;;;1.17;;
33786;SDS011;29742;51.540;9.358;2023-03-03T21:44:46;1.38;;;1.23;;
33786;SDS011;29742;51.540;9.358;2023-03-03T21:49:49;1.92;;;1.00;;
33786;SDS011;29742;51.540;9.358;2023-03-03T21:54:50;1.55;;;1.08;;
33786;SDS011;29742;51.540;9.358;2023-03-03T21:59:51;1.73;;;1.20;;
33786;SDS011;29742;51.540;9.358;2023-03-03T22:04:52;1.63;;;0.82;;
33786;SDS011;29742;51.540;9.358;2023-03-03T22:09:52;1.15;;;0.90;;
33786;SDS011;29742;51.540;9.358;2023-03-03T22:14:53;2.10;;;1.20;;
33786;SDS011;29742;51.540;9.358;2023-03-03T22:19:53;1.45;;;1.10;;
33786;SDS011;29742;51.540;9.358;2023-03-03T22:24:54;2.63;;;1.35;;
33786;SDS011;29742;51.540;9.358;2023-03-03T22:29:54;1.45;;;1.08;;
33786;SDS011;29742;51.540;9.358;2023-03-03T22:34:55;2.08;;;1.23;;
33786;SDS011;29742;51.540;9.358;2023-03-03T22:39:55;1.90;;;1.27;;
33786;SDS011;29742;51.540;9.358;2023-03-03T22:44:56;1.80;;;1.13;;
33786;SDS011;29742;51.540;9.358;2023-03-03T22:49:56;2.38;;;1.20;;
33786;SDS011;29742;51.540;9.358;2023-03-03T22:54:56;2.20;;;1.50;;
33786;SDS011;29742;51.540;9.358;2023-03-03T22:59:57;2.75;;;1.58;;
33786;SDS011;29742;51.540;9.358;2023-03-03T23:04:58;1.63;;;1.17;;
33786;SDS011;29742;51.540;9.358;2023-03-03T23:10:00;2.00;;;1.27;;
33786;SDS011;29742;51.540;9.358;2023-03-03T23:15:01;2.45;;;1.38;;
33786;SDS011;29742;51.540;9.358;2023-03-03T23:20:03;2.53;;;1.52;;
33786;SDS011;29742;51.540;9.358;2023-03-03T23:25:04;2.38;;;1.38;;
33786;SDS011;29742;51.540;9.358;2023-03-03T23:30:05;2.05;;;1.20;;
33786;SDS011;29742;51.540;9.358;2023-03-03T23:35:06;1.77;;;1.40;;
33786;SDS011;29742;51.540;9.358;2023-03-03T23:40:07;2.00;;;1.45;;
33786;SDS011;29742;51.540;9.358;2023-03-03T23:45:09;2.42;;;1.20;;
33786;SDS011;29742;51.540;9.358;2023-03-03T23:50:10;1.65;;;1.15;;
33786;SDS011;29742;51.540;9.358;2023-03-03T23:55:11;2.75;;;1.48;;
